createdAt,value
2023-05-12T00:00:38.282Z,101714.91
2023-05-12T00:05:34.865Z,101697.94
2023-05-12T00:10:31.385Z,101701.13
2023-05-12T00:15:27.731Z,101703.38
2023-05-12T00:20:24.410Z,101710.44
2023-05-12T00:25:20.894Z,101687.88
2023-05-12T00:30:17.470Z,101710.19
2023-05-12T00:35:14.121Z,101699.94
2023-05-12T00:40:13.858Z,101701.63
2023-05-12T00:45:10.980Z,101701.88
2023-05-12T00:50:08.591Z,101707.41
2023-05-12T00:55:06.014Z,101711.41
2023-05-12T01:00:02.700Z,101707.00
2023-05-12T01:04:59.268Z,101709.66
2023-05-12T01:09:56.461Z,101713.22
2023-05-12T01:14:54.013Z,101717.38
2023-05-12T01:19:52.587Z,101715.34
2023-05-12T01:24:52.443Z,101723.16
2023-05-12T01:29:49.813Z,101714.91
2023-05-12T01:34:46.652Z,101733.00
2023-05-12T01:39:43.158Z,101733.97
2023-05-12T01:44:39.885Z,101750.91
2023-05-12T01:49:36.532Z,101732.38
2023-05-12T01:54:33.050Z,101731.63
2023-05-12T01:59:29.572Z,101746.28
2023-05-12T02:04:27.121Z,101758.94
2023-05-12T02:09:23.703Z,101746.00
2023-05-12T02:14:21.649Z,101746.84
2023-05-12T02:19:21.487Z,101758.81
2023-05-12T02:24:17.986Z,101757.22
2023-05-12T02:29:14.497Z,101774.47
2023-05-12T02:34:10.996Z,101760.66
2023-05-12T02:39:07.854Z,101771.44
2023-05-12T02:44:04.441Z,101758.16
2023-05-12T02:49:01.120Z,101750.47
2023-05-12T02:53:57.692Z,101752.16
2023-05-12T02:58:54.186Z,101763.63
2023-05-12T03:03:50.641Z,101766.63
2023-05-12T03:08:47.242Z,101763.75
2023-05-12T03:13:44.796Z,101764.59
2023-05-12T03:18:41.177Z,101764.06
2023-05-12T03:23:40.770Z,101763.75
2023-05-12T03:28:37.587Z,101780.22
2023-05-12T03:33:34.278Z,101777.91
2023-05-12T03:38:30.962Z,101778.53
2023-05-12T03:43:27.432Z,101782.81
2023-05-12T03:48:23.776Z,101784.41
2023-05-12T03:53:20.592Z,101788.91
2023-05-12T03:58:17.381Z,101798.66
2023-05-12T04:03:13.898Z,101797.69
2023-05-12T04:08:11.445Z,101800.25
2023-05-12T04:13:10.868Z,101801.97
2023-05-12T04:18:07.404Z,101801.13
2023-05-12T04:23:03.845Z,101801.00
2023-05-12T04:28:00.232Z,101811.50
2023-05-12T04:32:57.183Z,101792.97
2023-05-12T04:48:25.196Z,101827.78
2023-05-12T04:53:21.462Z,101831.00
2023-05-12T04:58:17.890Z,101844.06
2023-05-12T05:03:14.323Z,101849.13
2023-05-12T05:08:13.956Z,101855.97
2023-05-12T05:13:10.434Z,101870.09
2023-05-12T05:18:07.001Z,101861.66
2023-05-12T05:23:03.499Z,101858.97
2023-05-12T05:27:59.937Z,101869.22
2023-05-12T05:32:56.364Z,101873.44
2023-05-12T05:37:55.578Z,101883.47
2023-05-12T05:42:52.129Z,101885.69
2023-05-12T05:47:49.940Z,101882.34
2023-05-12T05:52:46.471Z,101894.84
2023-05-12T05:57:43.101Z,101886.28
2023-05-12T06:02:39.894Z,101894.16
2023-05-12T06:07:36.404Z,101904.81
2023-05-12T06:12:32.916Z,101905.50
2023-05-12T06:17:31.933Z,101907.06
2023-05-12T06:22:32.003Z,101921.00
2023-05-12T06:27:28.468Z,101909.44
2023-05-12T06:32:24.956Z,101916.56
2023-05-12T06:37:21.504Z,101921.59
2023-05-12T06:42:19.153Z,101926.75
2023-05-12T06:47:15.610Z,101940.13
2023-05-12T06:52:14.398Z,101936.09
2023-05-12T06:57:10.888Z,101928.38
2023-05-12T07:02:07.463Z,101936.94
2023-05-12T07:07:04.029Z,101944.72
2023-05-12T07:12:00.662Z,101942.38
2023-05-12T07:16:57.306Z,101942.00
2023-05-12T07:21:53.970Z,101954.81
2023-05-12T07:26:50.448Z,101950.91
2023-05-12T07:31:47.066Z,101957.13
2023-05-12T07:36:43.962Z,101951.56
2023-05-12T07:41:40.902Z,101950.53
2023-05-12T07:46:37.396Z,101949.38
2023-05-12T07:51:33.851Z,101954.56
2023-05-12T07:56:30.341Z,101957.94
2023-05-12T08:01:26.800Z,101966.81
2023-05-12T08:06:24.921Z,101956.38
2023-05-12T08:11:21.857Z,101956.31
2023-05-12T08:16:18.381Z,101964.31
2023-05-12T08:21:17.414Z,101958.41
2023-05-12T08:26:15.628Z,101963.56
2023-05-12T08:31:12.452Z,101959.72
2023-05-12T08:36:08.977Z,101968.81
2023-05-12T08:41:25.463Z,101959.13
2023-05-12T08:46:22.621Z,101960.81
2023-05-12T08:51:19.496Z,101956.56
2023-05-12T09:01:19.717Z,101954.91
2023-05-12T09:06:16.881Z,101960.63
2023-05-12T09:11:13.445Z,101953.41
2023-05-12T09:16:12.638Z,101948.91
2023-05-12T09:21:09.116Z,101956.56
2023-05-12T09:26:05.555Z,101944.50
2023-05-12T09:31:02.241Z,101953.81
2023-05-12T09:36:00.052Z,101949.69
2023-05-12T09:40:56.542Z,101950.84
2023-05-12T09:45:53.047Z,101967.91
2023-05-12T09:50:51.528Z,101966.06
2023-05-12T09:55:48.522Z,101960.53
2023-05-12T10:06:12.219Z,101952.28
2023-05-12T10:11:09.248Z,101939.75
2023-05-12T10:16:06.518Z,101949.28
2023-05-12T10:21:03.262Z,101948.16
2023-05-12T10:26:02.132Z,101943.00
2023-05-12T10:30:59.213Z,101934.91
2023-05-12T10:35:55.842Z,101931.03
2023-05-12T10:40:59.119Z,101943.59
2023-05-12T10:46:22.924Z,101946.00
2023-05-12T10:51:21.982Z,101934.34
2023-05-12T10:56:23.447Z,101941.00
2023-05-12T11:01:25.122Z,101927.22
2023-05-12T11:06:22.779Z,101933.47
2023-05-12T11:11:22.441Z,101945.06
2023-05-12T11:16:22.262Z,101937.69
2023-05-12T11:21:18.808Z,101945.50
2023-05-12T11:26:18.704Z,101943.81
2023-05-12T11:31:21.925Z,101944.22
2023-05-12T11:36:21.662Z,101942.63
2023-05-12T11:41:26.696Z,101952.75
2023-05-12T11:46:25.429Z,101953.31
2023-05-12T11:51:22.219Z,101953.09
2023-05-12T11:56:23.564Z,101954.25
2023-05-12T12:01:21.025Z,101969.06
2023-05-12T12:06:18.339Z,101942.16
2023-05-12T12:11:18.344Z,101952.97
2023-05-12T12:16:15.373Z,101958.38
2023-05-12T12:21:26.386Z,101949.03
2023-05-12T12:26:23.230Z,101951.31
2023-05-12T12:31:19.921Z,101956.31
2023-05-12T12:36:16.560Z,101936.59
2023-05-12T12:41:14.021Z,101956.06
2023-05-12T12:46:10.758Z,101937.19
2023-05-12T12:51:07.470Z,101932.19
2023-05-12T12:56:05.324Z,101933.31
2023-05-12T13:01:02.352Z,101923.81
2023-05-12T13:05:59.094Z,101928.75
2023-05-12T13:10:55.963Z,101931.47
2023-05-12T13:15:53.318Z,101921.34
2023-05-12T13:20:54.293Z,101923.47
2023-05-12T13:25:52.079Z,101918.34
2023-05-12T13:30:48.897Z,101930.00
2023-05-12T13:35:45.648Z,101937.13
2023-05-12T13:40:44.659Z,101938.81
2023-05-12T13:45:43.502Z,101927.31
2023-05-12T13:50:40.182Z,101917.38
2023-05-12T13:55:40.797Z,101923.44
2023-05-12T14:00:39.325Z,101916.06
2023-05-12T14:05:36.085Z,101917.31
2023-05-12T14:10:32.915Z,101903.25
2023-05-12T14:15:40.125Z,101918.19
2023-05-12T14:20:47.193Z,101917.19
2023-05-12T14:25:48.201Z,101927.72
2023-05-12T14:30:45.372Z,101922.88
2023-05-12T14:35:43.406Z,101928.84
2023-05-12T14:40:43.562Z,101917.22
2023-05-12T14:45:40.237Z,101922.03
2023-05-12T14:50:37.965Z,101931.72
2023-05-12T14:55:34.542Z,101927.31
2023-05-12T15:00:31.480Z,101916.41
2023-05-12T15:05:52.726Z,101921.53
2023-05-12T15:10:47.892Z,101947.13
2023-05-12T15:15:44.584Z,101946.84
2023-05-12T15:20:43.565Z,101944.84
2023-05-12T15:25:43.453Z,101947.69
2023-05-12T15:30:42.962Z,101940.72
2023-05-12T15:35:39.596Z,101922.53
2023-05-12T15:40:45.201Z,101935.75
2023-05-12T15:45:41.939Z,101922.78
2023-05-12T15:50:38.714Z,101924.94
2023-05-12T15:55:35.466Z,101934.19
2023-05-12T16:00:32.104Z,101937.31
2023-05-12T16:05:31.566Z,101950.53
2023-05-12T16:10:28.241Z,101949.41
2023-05-12T16:15:24.998Z,101940.31
2023-05-12T16:20:21.897Z,101951.53
2023-05-12T16:25:18.770Z,101948.41
2023-05-12T16:30:20.089Z,101926.38
2023-05-12T16:35:17.673Z,101927.25
2023-05-12T16:40:15.142Z,101932.06
2023-05-12T16:45:12.035Z,101937.03
2023-05-12T16:50:09.474Z,101925.97
2023-05-12T16:55:06.875Z,101923.13
2023-05-12T17:00:09.740Z,101943.44
2023-05-12T17:05:08.716Z,101926.38
2023-05-12T17:10:05.626Z,101914.28
2023-05-12T17:15:07.615Z,101963.91
2023-05-12T17:20:06.126Z,101935.97
2023-05-12T17:25:02.949Z,101935.41
2023-05-12T17:29:59.808Z,101940.91
2023-05-12T17:34:59.144Z,101941.34
2023-05-12T17:39:56.222Z,101963.75
2023-05-12T17:44:55.077Z,101965.31
2023-05-12T17:49:52.216Z,101986.56
2023-05-12T17:54:49.429Z,101969.19
2023-05-12T17:59:46.344Z,101983.97
2023-05-12T18:04:42.938Z,101972.06
2023-05-12T18:09:39.611Z,101984.34
2023-05-12T18:14:36.449Z,101978.91
2023-05-12T18:19:33.389Z,101982.25
2023-05-12T18:24:30.079Z,101978.53
2023-05-12T18:29:26.905Z,101985.94
2023-05-12T18:34:24.331Z,101988.41
2023-05-12T18:39:21.072Z,101989.97
2023-05-12T18:44:17.621Z,101988.19
2023-05-12T18:49:14.307Z,102018.41
2023-05-12T18:54:11.230Z,102013.06
2023-05-12T18:59:08.117Z,102009.53
2023-05-12T19:04:08.028Z,102008.09
2023-05-12T19:09:05.109Z,102034.75
2023-05-12T19:14:01.845Z,102022.88
2023-05-12T19:19:02.879Z,102023.84
2023-05-12T19:24:03.622Z,102039.03
2023-05-12T19:29:06.911Z,102040.13
2023-05-12T19:34:03.679Z,102038.59
2023-05-12T19:39:00.535Z,102042.47
2023-05-12T19:43:58.126Z,102049.41
2023-05-12T19:48:54.766Z,102062.44
2023-05-12T19:53:51.469Z,102072.28
2023-05-12T19:58:48.207Z,102064.72
2023-05-12T20:03:51.271Z,102076.69
2023-05-12T20:08:49.189Z,102055.56
2023-05-12T20:13:45.874Z,102073.00
2023-05-12T20:18:42.799Z,102070.34
2023-05-12T20:23:39.545Z,102067.44
2023-05-12T20:28:36.720Z,102086.84
2023-05-12T20:33:33.411Z,102082.91
2023-05-12T20:38:30.051Z,102083.13
2023-05-12T20:43:31.512Z,102097.72
2023-05-12T20:48:28.129Z,102095.28
2023-05-12T20:53:25.029Z,102095.19
2023-05-12T20:58:21.628Z,102105.16
2023-05-12T21:03:18.297Z,102118.56
2023-05-12T21:08:15.706Z,102099.16
2023-05-12T21:13:12.346Z,102116.75
2023-05-12T21:18:09.003Z,102102.69
2023-05-12T21:23:08.405Z,102111.88
2023-05-12T21:28:08.350Z,102116.59
2023-05-12T21:33:08.015Z,102115.94
2023-05-12T21:38:05.973Z,102113.88
2023-05-12T21:43:02.731Z,102109.16
2023-05-12T21:48:02.183Z,102138.75
2023-05-12T21:52:58.836Z,102119.47
2023-05-12T21:57:55.475Z,102117.31
2023-05-12T22:02:52.375Z,102122.97
2023-05-12T22:07:49.153Z,102124.16
2023-05-12T22:12:46.587Z,102140.97
2023-05-12T22:17:43.297Z,102140.66
2023-05-12T22:22:40.061Z,102119.44
2023-05-12T22:27:39.536Z,102122.81
2023-05-12T22:32:36.467Z,102140.25
2023-05-12T22:37:33.222Z,102129.25
2023-05-12T22:42:29.867Z,102146.81
2023-05-12T22:47:26.558Z,102137.69
2023-05-12T22:52:23.283Z,102133.69
2023-05-12T22:57:22.779Z,102132.22
2023-05-12T23:02:19.472Z,102145.06
2023-05-12T23:07:16.114Z,102153.09
2023-05-12T23:12:12.789Z,102142.84
2023-05-12T23:17:12.361Z,102128.31
2023-05-12T23:22:11.854Z,102139.88
2023-05-12T23:27:08.577Z,102133.16
2023-05-12T23:32:08.145Z,102144.34
2023-05-12T23:37:06.920Z,102149.38
2023-05-12T23:42:03.888Z,102153.97
2023-05-12T23:47:00.858Z,102146.31
2023-05-12T23:51:57.305Z,102149.97
2023-05-12T23:56:53.784Z,102145.25
